Time;durP1;ratioP1;P1;durP2;ratioP2;P2;SDS_P1;SDS_P2;PMS_P1;PMS_P2;Temp;Humidity;BMP_temperature;BMP_pressure;BME280_temperature;BME280_humidity;BME280_pressure;Samples;Min_cycle;Max_cycle;Signal;HPM_P1;HPM_P2
2022/11/23 00:01:18;;;;;;;64.45;29.75;;;;;;;0.52;100.00;99959.25;5012423;28;20192;-48
2022/11/23 00:03:45;;;;;;;63.72;30.40;;;;;;;0.51;100.00;99964.56;5012913;28;20275;-45
2022/11/23 00:06:11;;;;;;;63.58;30.65;;;;;;;0.52;100.00;99961.03;4990330;28;20169;-46
2022/11/23 00:08:37;;;;;;;65.10;31.65;;;;;;;0.52;100.00;99951.34;5009976;28;20173;-46
2022/11/23 00:11:03;;;;;;;63.75;31.02;;;;;;;0.52;100.00;99948.72;5011912;28;20615;-48
2022/11/23 00:13:29;;;;;;;62.25;30.05;;;;;;;0.53;100.00;99958.38;5013043;28;20203;-47
2022/11/23 00:15:54;;;;;;;70.18;32.28;;;;;;;0.54;100.00;99954.84;5012391;28;20490;-46
2022/11/23 00:18:20;;;;;;;65.07;30.63;;;;;;;0.52;100.00;99947.84;5012460;28;20212;-45
2022/11/23 00:20:45;;;;;;;61.40;30.25;;;;;;;0.51;100.00;99954.03;5012316;28;20552;-48
2022/11/23 00:23:11;;;;;;;65.70;31.13;;;;;;;0.55;100.00;99953.09;5012362;28;20227;-45
2022/11/23 00:25:36;;;;;;;61.58;30.45;;;;;;;0.55;100.00;99945.19;5011841;28;20529;-46
2022/11/23 00:28:02;;;;;;;66.13;30.85;;;;;;;0.56;100.00;99946.94;5012420;28;20552;-45
2022/11/23 00:30:28;;;;;;;61.42;29.40;;;;;;;0.54;100.00;99948.69;5000134;28;20200;-47
2022/11/23 00:32:54;;;;;;;63.10;31.00;;;;;;;0.56;100.00;99946.94;4994643;28;20208;-46
2022/11/23 00:35:21;;;;;;;61.70;30.42;;;;;;;0.58;100.00;99950.41;4992069;28;20184;-45
2022/11/23 00:37:46;;;;;;;67.97;31.27;;;;;;;0.59;100.00;99947.78;4994550;28;20649;-46
2022/11/23 00:40:12;;;;;;;61.63;30.63;;;;;;;0.61;100.00;99947.72;5012230;28;20172;-46
2022/11/23 00:42:38;;;;;;;61.08;29.60;;;;;;;0.61;100.00;99946.00;5012466;28;20212;-48
2022/11/23 00:45:04;;;;;;;64.25;30.08;;;;;;;0.63;100.00;99939.81;5011433;28;20216;-45
2022/11/23 00:47:29;;;;;;;63.33;30.88;;;;;;;0.60;100.00;99935.47;5012599;28;20795;-48
2022/11/23 00:49:56;;;;;;;67.43;30.95;;;;;;;0.62;100.00;99933.69;5012158;28;20551;-48
2022/11/23 00:52:21;;;;;;;64.85;32.92;;;;;;;0.60;100.00;99951.28;4994298;28;20180;-46
2022/11/23 00:54:47;;;;;;;61.15;31.30;;;;;;;0.60;100.00;99943.38;4994278;28;20284;-46
2022/11/23 00:57:12;;;;;;;61.10;31.08;;;;;;;0.61;100.00;99945.09;4993731;28;20192;-45
2022/11/23 00:59:38;;;;;;;70.93;31.38;;;;;;;0.59;100.00;99936.34;5011662;28;20193;-46
2022/11/23 01:02:03;;;;;;;68.60;31.42;;;;;;;0.59;100.00;99944.25;4994293;28;20642;-46
2022/11/23 01:04:30;;;;;;;65.78;30.65;;;;;;;0.61;100.00;99947.72;4993902;28;20189;-45
2022/11/23 01:06:58;;;;;;;65.57;31.70;;;;;;;0.60;100.00;99953.91;4993622;28;20216;-46
2022/11/23 01:09:25;;;;;;;68.55;31.63;;;;;;;0.60;100.00;99956.53;5011333;28;20323;-45
2022/11/23 01:11:55;;;;;;;65.53;31.20;;;;;;;0.62;100.00;99946.84;4994035;28;20262;-46
2022/11/23 01:14:22;;;;;;;69.10;31.52;;;;;;;0.64;100.00;99946.84;4993871;28;20191;-45
2022/11/23 01:16:48;;;;;;;66.43;31.05;;;;;;;0.62;100.00;99952.13;4993420;28;20204;-45
2022/11/23 01:19:17;;;;;;;65.60;31.13;;;;;;;0.62;100.00;99941.59;5003580;28;20259;-45
2022/11/23 01:21:46;;;;;;;63.20;31.33;;;;;;;0.64;100.00;99942.44;5008358;28;20177;-44
2022/11/23 01:24:14;;;;;;;66.13;31.33;;;;;;;0.67;100.00;99938.88;5010227;28;20193;-46
2022/11/23 01:26:40;;;;;;;67.45;30.52;;;;;;;0.64;100.00;99944.22;5010866;28;20575;-45
2022/11/23 01:29:06;;;;;;;67.15;30.15;;;;;;;0.65;100.00;99943.31;5011107;28;20181;-45
2022/11/23 01:31:32;;;;;;;64.55;31.40;;;;;;;0.60;100.00;99935.47;5007878;28;20177;-44
2022/11/23 01:33:59;;;;;;;60.83;30.20;;;;;;;0.60;100.00;99938.09;5010923;28;20178;-45
2022/11/23 01:36:27;;;;;;;62.10;31.08;;;;;;;0.59;100.00;99939.88;5008057;28;20189;-45
2022/11/23 01:38:54;;;;;;;62.88;31.55;;;;;;;0.65;100.00;99948.59;5011089;28;20454;-47
2022/11/23 01:41:24;;;;;;;61.97;30.88;;;;;;;0.65;100.00;99931.00;5010155;28;20278;-47
2022/11/23 01:43:51;;;;;;;63.55;31.42;;;;;;;0.69;100.00;99937.97;5008939;28;20177;-47
2022/11/23 01:46:17;;;;;;;62.90;31.65;;;;;;;0.76;100.00;99944.03;5010105;28;20197;-43
2022/11/23 01:49:05;;;;;;;62.80;31.33;;;;;;;0.76;100.00;99950.19;5010927;28;20308;-44
2022/11/23 01:51:35;;;;;;;60.63;30.38;;;;;;;0.79;100.00;99944.88;5010874;28;20227;-48
2022/11/23 01:54:05;;;;;;;67.88;31.75;;;;;;;0.78;100.00;99935.22;5010097;28;20168;-46
2022/11/23 01:56:36;;;;;;;60.70;31.30;;;;;;;0.85;100.00;99948.31;4992812;28;20216;-45
2022/11/23 01:59:04;;;;;;;65.72;30.38;;;;;;;0.81;100.00;99951.00;4992559;28;20223;-45
2022/11/23 02:01:30;;;;;;;65.70;31.42;;;;;;;0.80;100.00;99949.25;5007245;28;20197;-47
2022/11/23 02:03:59;;;;;;;59.92;31.08;;;;;;;0.86;100.00;99950.97;5010499;28;20204;-46
2022/11/23 02:06:25;;;;;;;56.65;30.20;;;;;;;0.86;100.00;99939.53;4992020;28;20193;-47
2022/11/23 02:08:52;;;;;;;61.10;31.38;;;;;;;0.89;100.00;99944.75;5010399;28;20560;-46
2022/11/23 02:11:19;;;;;;;58.60;30.58;;;;;;;0.91;100.00;99953.53;4992822;28;20188;-46
2022/11/23 02:13:47;;;;;;;56.22;29.20;;;;;;;0.91;100.00;99961.44;4992741;28;20645;-46
2022/11/23 02:16:13;;;;;;;61.03;31.60;;;;;;;0.92;100.00;99958.78;4992197;28;20553;-45
2022/11/23 02:18:43;;;;;;;57.15;30.65;;;;;;;0.92;100.00;99955.25;4992312;28;20181;-46
2022/11/23 02:21:09;;;;;;;53.25;30.95;;;;;;;0.94;100.00;99956.13;4992200;28;20180;-46
2022/11/23 02:23:46;;;;;;;57.55;28.50;;;;;;;0.96;100.00;99951.69;5009828;28;20188;-47
2022/11/23 02:26:22;;;;;;;62.20;31.05;;;;;;;0.97;100.00;99949.03;5007130;28;20567;-46
2022/11/23 02:28:57;;;;;;;59.53;29.02;;;;;;;0.98;100.00;99929.72;5010031;28;20646;-45
2022/11/23 02:31:22;;;;;;;48.80;28.15;;;;;;;0.99;100.00;99938.47;5006957;28;20581;-45
2022/11/23 02:33:51;;;;;;;56.80;29.85;;;;;;;1.00;100.00;99937.56;4996828;28;20185;-47
2022/11/23 02:36:34;;;;;;;57.83;29.70;;;;;;;1.01;100.00;99940.19;4994329;28;20173;-45
2022/11/23 02:39:13;;;;;;;57.58;29.00;;;;;;;1.01;100.00;99939.34;5009694;28;20173;-48
2022/11/23 02:41:42;;;;;;;57.30;29.88;;;;;;;1.02;100.00;99941.06;5009489;28;20180;-45
2022/11/23 02:44:32;;;;;;;53.95;29.40;;;;;;;1.03;100.00;99933.16;5007945;28;20215;-47
2022/11/23 02:46:57;;;;;;;59.40;29.85;;;;;;;1.05;100.00;99930.50;5005759;28;20204;-47
2022/11/23 02:49:23;;;;;;;56.72;30.08;;;;;;;1.07;100.00;99933.09;4994235;28;20177;-48
2022/11/23 02:51:50;;;;;;;50.38;28.38;;;;;;;1.09;100.00;99923.38;5009615;28;20648;-45
2022/11/23 02:54:15;;;;;;;55.08;29.05;;;;;;;1.10;100.00;99927.78;5008508;28;20651;-47
2022/11/23 02:56:41;;;;;;;51.97;29.38;;;;;;;1.08;100.00;99927.81;4991842;28;20299;-47
2022/11/23 02:59:07;;;;;;;49.40;28.10;;;;;;;1.09;100.00;99936.56;5009522;28;20196;-46
2022/11/23 03:01:33;;;;;;;56.75;29.67;;;;;;;1.16;100.00;99935.59;4991662;28;20250;-45
2022/11/23 03:03:58;;;;;;;55.00;28.55;;;;;;;1.12;100.00;99924.22;4992230;28;20189;-46
2022/11/23 03:06:27;;;;;;;55.80;30.15;;;;;;;1.14;100.00;99930.34;4991474;28;20193;-46
2022/11/23 03:08:52;;;;;;;55.95;29.27;;;;;;;1.15;100.00;99928.59;5005991;28;20185;-46
2022/11/23 03:11:19;;;;;;;57.13;29.17;;;;;;;1.16;100.00;99933.84;4991856;28;20192;-43
2022/11/23 03:13:45;;;;;;;50.92;29.02;;;;;;;1.17;100.00;99937.34;4991821;28;20211;-45
2022/11/23 03:16:11;;;;;;;53.58;27.35;;;;;;;1.19;100.00;99944.34;4990374;28;20560;-46
2022/11/23 03:18:37;;;;;;;50.10;27.90;;;;;;;1.20;100.00;99927.63;4991662;28;20181;-46
2022/11/23 03:21:04;;;;;;;51.58;28.63;;;;;;;1.20;100.00;99943.47;4991926;28;20649;-45
2022/11/23 03:23:30;;;;;;;48.30;28.77;;;;;;;1.21;100.00;99953.13;4991820;28;20184;-46
2022/11/23 03:25:59;;;;;;;51.45;28.00;;;;;;;1.21;100.00;99942.56;4989182;28;20185;-44
2022/11/23 03:28:30;;;;;;;57.53;29.95;;;;;;;1.21;100.00;99942.56;4991099;28;20298;-49
2022/11/23 03:30:55;;;;;;;49.53;29.02;;;;;;;1.24;100.00;99941.63;4991516;28;20594;-48
2022/11/23 03:33:21;;;;;;;54.15;28.70;;;;;;;1.22;100.00;99941.69;5009553;28;20194;-47
2022/11/23 03:35:48;;;;;;;50.85;26.67;;;;;;;1.26;100.00;99944.25;4988856;28;20259;-47
2022/11/23 03:38:24;;;;;;;51.78;28.48;;;;;;;1.27;100.00;99935.44;4992169;28;20211;-48
2022/11/23 03:40:51;;;;;;;49.55;27.50;;;;;;;1.26;100.00;99934.56;5000781;28;20193;-48
2022/11/23 03:43:26;;;;;;;49.25;28.05;;;;;;;1.23;100.00;99935.50;4990356;28;20198;-49
2022/11/23 03:45:51;;;;;;;49.97;27.83;;;;;;;1.24;100.00;99925.81;4990923;28;20401;-49
2022/11/23 03:48:17;;;;;;;49.33;28.67;;;;;;;1.29;100.00;99944.19;4989921;28;20574;-48
2022/11/23 03:50:44;;;;;;;54.70;28.95;;;;;;;1.27;100.00;99935.44;5009431;28;20181;-48
2022/11/23 03:53:10;;;;;;;51.42;29.98;;;;;;;1.27;100.00;99936.34;4991692;28;20692;-50
2022/11/23 03:55:36;;;;;;;50.33;27.45;;;;;;;1.29;100.00;99944.19;5007370;28;20185;-46
2022/11/23 03:58:02;;;;;;;45.08;27.55;;;;;;;1.27;100.00;99935.44;4987032;28;20191;-46
2022/11/23 04:00:32;;;;;;;49.20;28.15;;;;;;;1.29;100.00;99945.09;4999134;28;20216;-49
2022/11/23 04:02:58;;;;;;;49.10;28.77;;;;;;;1.30;100.00;99951.25;4991658;28;20189;-49
2022/11/23 04:05:47;;;;;;;46.13;26.33;;;;;;;1.31;100.00;99942.41;5000898;28;20208;-47
2022/11/23 04:08:32;;;;;;;52.65;28.08;;;;;;;1.29;100.00;99939.81;5009366;28;20255;-48
2022/11/23 04:10:58;;;;;;;47.70;27.00;;;;;;;1.28;100.00;99937.19;4993279;28;20612;-49
2022/11/23 04:13:36;;;;;;;52.67;27.92;;;;;;;1.32;100.00;99938.91;4998382;28;20610;-48
2022/11/23 04:16:02;;;;;;;50.58;28.67;;;;;;;1.32;100.00;99928.34;5011378;28;20180;-46
2022/11/23 04:18:27;;;;;;;51.85;28.02;;;;;;;1.30;100.00;99938.91;5001236;28;20263;-49
2022/11/23 04:20:53;;;;;;;45.83;27.50;;;;;;;1.30;100.00;99924.84;4994706;28;20185;-46
2022/11/23 04:23:19;;;;;;;51.63;28.67;;;;;;;1.27;100.00;99930.16;5012685;28;20184;-48
2022/11/23 04:25:47;;;;;;;49.40;28.33;;;;;;;1.26;100.00;99929.28;5011968;28;20181;-48
2022/11/23 04:28:13;;;;;;;54.58;28.27;;;;;;;1.28;100.00;99930.16;5011989;28;20208;-48
2022/11/23 04:30:38;;;;;;;47.55;28.35;;;;;;;1.32;100.00;99929.22;5012279;28;20212;-49
2022/11/23 04:33:05;;;;;;;54.95;28.50;;;;;;;1.31;100.00;99932.75;5012438;28;20207;-50
2022/11/23 04:35:31;;;;;;;49.42;28.05;;;;;;;1.34;100.00;99926.56;5011403;28;20582;-49
2022/11/23 04:37:57;;;;;;;49.30;27.40;;;;;;;1.30;100.00;99933.63;4993962;28;20263;-48
2022/11/23 04:40:26;;;;;;;52.75;28.55;;;;;;;1.31;100.00;99937.13;4994325;28;20570;-48
2022/11/23 04:43:01;;;;;;;51.40;28.83;;;;;;;1.32;100.00;99923.06;4995337;28;20259;-49
2022/11/23 04:45:28;;;;;;;46.50;27.23;;;;;;;1.31;100.00;99927.47;4993803;28;20684;-49
2022/11/23 04:47:59;;;;;;;50.20;27.90;;;;;;;1.36;100.00;99935.31;4993330;28;20213;-48
2022/11/23 04:50:26;;;;;;;51.85;28.15;;;;;;;1.37;100.00;99918.56;4993893;28;20195;-47
2022/11/23 04:52:54;;;;;;;48.65;28.30;;;;;;;1.36;100.00;99924.78;4993927;28;20200;-46
2022/11/23 04:55:25;;;;;;;51.45;27.58;;;;;;;1.40;100.00;99932.63;4993022;28;20193;-47
2022/11/23 04:57:55;;;;;;;47.38;28.25;;;;;;;1.38;100.00;99920.34;4995228;28;20573;-47
2022/11/23 05:00:23;;;;;;;51.25;28.33;;;;;;;1.41;100.00;99928.19;4993714;28;20681;-49
2022/11/23 05:02:52;;;;;;;47.85;26.60;;;;;;;1.40;100.00;99915.88;4990453;28;20622;-50
2022/11/23 05:05:22;;;;;;;47.97;27.15;;;;;;;1.44;100.00;99922.84;4993631;28;20180;-48
2022/11/23 05:07:47;;;;;;;47.25;27.08;;;;;;;1.43;100.00;99915.84;5009272;28;20661;-48
2022/11/23 05:10:16;;;;;;;49.30;27.02;;;;;;;1.45;100.00;99919.34;4992668;28;20325;-47
2022/11/23 05:12:41;;;;;;;48.58;27.08;;;;;;;1.46;100.00;99913.16;5011705;28;20189;-47
2022/11/23 05:15:12;;;;;;;45.67;26.95;;;;;;;1.46;100.00;99921.06;4992781;28;20196;-48
2022/11/23 05:17:37;;;;;;;46.83;26.60;;;;;;;1.48;100.00;99927.19;4993249;28;20244;-47
2022/11/23 05:20:08;;;;;;;48.80;26.48;;;;;;;1.51;100.00;99928.91;4992472;28;20279;-47
2022/11/23 05:22:37;;;;;;;47.50;27.70;;;;;;;1.54;100.00;99919.19;4992166;28;20177;-49
2022/11/23 05:25:08;;;;;;;44.70;26.15;;;;;;;1.60;100.00;99908.53;4977594;28;20193;-48
2022/11/23 05:27:36;;;;;;;46.47;27.83;;;;;;;1.58;100.00;99923.53;4993139;28;20216;-48
2022/11/23 05:30:02;;;;;;;44.63;26.25;;;;;;;1.58;100.00;99920.03;4991740;28;20182;-46
2022/11/23 05:32:27;;;;;;;46.92;26.48;;;;;;;1.60;100.00;99927.00;4995099;28;20286;-42
2022/11/23 05:34:53;;;;;;;43.90;25.40;;;;;;;1.61;100.00;99930.53;5012003;28;20177;-43
2022/11/23 05:37:19;;;;;;;46.10;26.70;;;;;;;1.63;100.00;99919.03;4994468;28;20252;-43
2022/11/23 05:39:56;;;;;;;45.67;28.33;;;;;;;1.64;100.00;99926.06;4991208;28;20184;-44
2022/11/23 05:42:23;;;;;;;46.10;25.42;;;;;;;1.65;100.00;99927.81;4994095;28;20176;-44
2022/11/23 05:44:50;;;;;;;42.53;25.40;;;;;;;1.69;100.00;99927.78;4993730;28;20284;-44
2022/11/23 05:47:25;;;;;;;46.63;26.70;;;;;;;1.69;100.00;99928.63;4974136;28;20212;-46
2022/11/23 05:49:50;;;;;;;45.53;27.23;;;;;;;1.70;100.00;99918.94;4996343;28;20294;-45
2022/11/23 05:52:19;;;;;;;46.60;25.60;;;;;;;1.73;100.00;99916.22;4973739;28;20185;-46
2022/11/23 05:54:46;;;;;;;45.55;26.83;;;;;;;1.70;100.00;99921.56;4973899;28;20178;-44
2022/11/23 05:57:14;;;;;;;46.33;25.48;;;;;;;1.72;100.00;99917.16;4978028;28;20311;-45
2022/11/23 05:59:41;;;;;;;49.40;27.75;;;;;;;1.75;100.00;99925.91;4993141;28;20701;-46
2022/11/23 06:02:11;;;;;;;45.63;25.58;;;;;;;1.76;100.00;99919.69;4993111;28;20191;-44
2022/11/23 06:04:36;;;;;;;43.88;25.35;;;;;;;1.79;100.00;99918.78;5010251;28;20189;-43
2022/11/23 06:07:05;;;;;;;45.33;25.85;;;;;;;1.80;100.00;99923.19;4993283;28;20590;-43
2022/11/23 06:10:10;;;;;;;49.00;26.85;;;;;;;1.78;100.00;99917.03;5003589;28;20273;-43
2022/11/23 06:12:38;;;;;;;43.05;24.83;;;;;;;1.79;100.00;99924.94;4993242;28;20168;-45
2022/11/23 06:15:07;;;;;;;42.45;25.23;;;;;;;1.80;100.00;99920.53;5009356;28;20181;-41
2022/11/23 06:17:34;;;;;;;43.90;26.25;;;;;;;1.81;100.00;99917.84;5009234;28;20197;-44
2022/11/23 06:20:04;;;;;;;42.97;24.45;;;;;;;1.84;100.00;99927.50;4993096;28;20699;-43
2022/11/23 06:22:32;;;;;;;43.85;25.70;;;;;;;1.83;100.00;99921.34;5009470;28;20200;-43
2022/11/23 06:25:00;;;;;;;43.03;24.42;;;;;;;1.87;100.00;99937.16;4993664;28;20708;-44
2022/11/23 06:27:57;;;;;;;44.60;24.77;;;;;;;1.87;100.00;99931.88;5009974;28;20556;-42
2022/11/23 06:30:29;;;;;;;44.42;25.52;;;;;;;1.88;100.00;99913.34;4993790;28;20172;-42
2022/11/23 06:33:03;;;;;;;44.90;24.50;;;;;;;1.86;100.00;99933.63;4993413;28;20253;-42
2022/11/23 06:35:30;;;;;;;45.75;25.70;;;;;;;1.88;100.00;99931.84;4992993;28;20564;-45
2022/11/23 06:37:56;;;;;;;42.58;25.15;;;;;;;1.84;100.00;99923.09;5010844;28;20198;-42
2022/11/23 06:40:22;;;;;;;40.38;24.92;;;;;;;1.89;100.00;99930.06;5001406;28;20272;-44
2022/11/23 06:42:49;;;;;;;40.38;24.08;;;;;;;1.88;100.00;99931.84;4993216;28;20184;-46
2022/11/23 06:45:19;;;;;;;41.90;24.20;;;;;;;1.89;100.00;99930.94;4977639;28;20242;-43
2022/11/23 06:47:47;;;;;;;45.50;26.15;;;;;;;1.91;100.00;99937.06;5009080;28;20228;-44
2022/11/23 06:50:13;;;;;;;44.80;25.25;;;;;;;1.89;100.00;99932.72;5011076;28;20169;-43
2022/11/23 06:52:39;;;;;;;38.47;24.48;;;;;;;1.88;100.00;99939.78;5009333;28;20272;-43
2022/11/23 06:55:04;;;;;;;43.08;24.83;;;;;;;1.86;100.00;99941.56;5011234;28;20261;-43
2022/11/23 06:57:30;;;;;;;45.80;24.75;;;;;;;1.89;100.00;99938.00;5009333;28;20209;-45
2022/11/23 06:59:56;;;;;;;42.72;23.63;;;;;;;1.88;100.00;99931.84;5009214;28;20180;-44
2022/11/23 07:02:29;;;;;;;43.13;23.90;;;;;;;1.90;100.00;99937.94;4992828;28;20184;-44
2022/11/23 07:04:56;;;;;;;41.08;24.20;;;;;;;1.91;100.00;99942.34;5008756;28;20223;-42
2022/11/23 07:07:23;;;;;;;40.65;23.98;;;;;;;1.94;100.00;99939.63;5009027;28;20208;-43
2022/11/23 07:09:57;;;;;;;41.35;23.17;;;;;;;1.94;100.00;99942.28;5008951;28;20649;-42
2022/11/23 07:12:30;;;;;;;39.38;23.60;;;;;;;1.98;100.00;99941.34;5008947;28;20199;-43
2022/11/23 07:14:58;;;;;;;38.15;23.30;;;;;;;2.00;100.00;99941.31;5010474;28;20675;-43
2022/11/23 07:17:24;;;;;;;39.15;23.73;;;;;;;2.03;100.00;99946.53;5008910;28;20193;-45
2022/11/23 07:19:50;;;;;;;38.58;22.52;;;;;;;2.08;100.00;99951.72;5008226;28;20180;-42
2022/11/23 07:22:16;;;;;;;43.35;22.77;;;;;;;2.11;100.00;99944.63;5010205;28;20184;-46
2022/11/23 07:24:42;;;;;;;40.25;22.92;;;;;;;2.12;100.00;99958.72;5009762;28;20177;-44
2022/11/23 07:27:07;;;;;;;38.65;23.48;;;;;;;2.13;100.00;99953.41;4992985;28;20319;-46
2022/11/23 07:29:34;;;;;;;44.55;23.25;;;;;;;2.20;100.00;99957.66;4991728;28;20192;-46
2022/11/23 07:31:59;;;;;;;39.20;21.50;;;;;;;2.20;100.00;99955.03;4975921;28;20366;-46
2022/11/23 07:34:28;;;;;;;36.33;22.45;;;;;;;2.25;100.00;99971.69;4985538;28;20191;-47
2022/11/23 07:36:55;;;;;;;36.67;22.70;;;;;;;2.27;100.00;99961.06;4989492;28;20299;-46
2022/11/23 07:39:21;;;;;;;46.33;22.65;;;;;;;2.28;100.00;99959.31;4996833;28;20657;-46
2022/11/23 07:41:49;;;;;;;35.00;21.75;;;;;;;2.29;100.00;99961.06;5009018;28;20191;-46
2022/11/23 07:44:20;;;;;;;36.72;21.20;;;;;;;2.32;100.00;99967.16;4994404;28;20258;-44
2022/11/23 07:46:45;;;;;;;36.92;21.83;;;;;;;2.33;100.00;99957.47;5008752;28;20744;-45
2022/11/23 07:49:11;;;;;;;36.95;22.33;;;;;;;2.35;100.00;99960.94;5007169;28;20189;-44
2022/11/23 07:51:36;;;;;;;39.47;21.25;;;;;;;2.36;100.00;99957.38;5009200;28;20228;-45
2022/11/23 07:54:02;;;;;;;36.10;21.27;;;;;;;2.36;100.00;99954.75;4994279;28;20243;-46
2022/11/23 07:56:28;;;;;;;37.40;20.75;;;;;;;2.36;100.00;99968.84;5012414;28;20192;-44
2022/11/23 07:58:53;;;;;;;40.50;21.92;;;;;;;2.38;100.00;99960.88;5009386;28;20180;-46
2022/11/23 08:01:19;;;;;;;31.50;20.42;;;;;;;2.41;100.00;99968.78;5008840;28;20307;-46
2022/11/23 08:03:45;;;;;;;34.25;20.60;;;;;;;2.40;100.00;99959.94;5012465;28;20271;-44
2022/11/23 08:06:14;;;;;;;32.67;21.10;;;;;;;2.40;100.00;99957.31;5011325;28;20205;-46
2022/11/23 08:08:39;;;;;;;32.33;20.73;;;;;;;2.41;100.00;99964.34;5009730;28;20204;-44
2022/11/23 08:11:06;;;;;;;47.63;22.55;;;;;;;2.38;100.00;99974.97;5013460;28;20642;-45
2022/11/23 08:13:33;;;;;;;37.45;22.05;;;;;;;2.37;100.00;99975.88;5011917;28;20199;-45
2022/11/23 08:15:59;;;;;;;37.95;22.92;;;;;;;2.37;100.00;99965.31;5012503;28;20189;-46
2022/11/23 08:18:25;;;;;;;34.65;21.30;;;;;;;2.36;100.00;99966.22;4994348;28;20204;-46
2022/11/23 08:20:51;;;;;;;38.45;23.00;;;;;;;2.37;100.00;99981.16;5012310;28;20654;-47
2022/11/23 08:23:17;;;;;;;38.38;22.17;;;;;;;2.39;100.00;99968.78;5012175;28;20684;-45
2022/11/23 08:25:43;;;;;;;39.45;22.48;;;;;;;2.42;100.00;99979.28;5011828;28;20213;-48
2022/11/23 08:28:09;;;;;;;41.80;23.88;;;;;;;2.41;100.00;99971.41;5010879;28;20600;-48
2022/11/23 08:30:35;;;;;;;40.63;23.08;;;;;;;2.43;100.00;99964.31;5012602;28;20543;-47
2022/11/23 08:33:05;;;;;;;37.65;23.45;;;;;;;2.46;100.00;99965.13;5010813;28;20195;-46
2022/11/23 08:35:35;;;;;;;42.13;22.88;;;;;;;2.49;100.00;99969.47;5010691;28;20181;-47
2022/11/23 08:38:01;;;;;;;38.75;23.35;;;;;;;2.54;100.00;99980.00;5010930;28;20208;-47
2022/11/23 08:40:27;;;;;;;42.63;23.33;;;;;;;2.58;100.00;99971.97;5012051;28;20211;-47
2022/11/23 08:42:53;;;;;;;42.47;22.25;;;;;;;2.62;100.00;99980.69;5008826;28;20200;-48
2022/11/23 08:45:19;;;;;;;36.50;21.83;;;;;;;2.66;100.00;99982.38;5008403;28;20288;-48
2022/11/23 08:47:45;;;;;;;40.78;24.05;;;;;;;2.72;100.00;99979.63;4992601;28;20216;-47
2022/11/23 08:50:11;;;;;;;38.45;21.80;;;;;;;2.77;100.00;99975.09;5011994;28;20326;-47
2022/11/23 08:52:36;;;;;;;40.60;22.13;;;;;;;2.83;100.00;99982.06;4993294;28;20196;-45
2022/11/23 08:55:02;;;;;;;44.25;23.42;;;;;;;2.84;100.00;99978.50;5011518;28;20272;-46
2022/11/23 08:57:28;;;;;;;35.28;21.52;;;;;;;2.83;100.00;99985.56;5011522;28;20205;-45
2022/11/23 08:59:53;;;;;;;37.40;22.10;;;;;;;2.85;100.00;99982.91;5009591;28;20211;-45
2022/11/23 09:02:19;;;;;;;39.67;22.00;;;;;;;2.85;100.00;99973.19;5012200;28;20203;-47
2022/11/23 09:04:44;;;;;;;34.10;21.52;;;;;;;2.89;100.00;99982.78;4996553;28;20185;-45
2022/11/23 09:07:10;;;;;;;54.35;23.80;;;;;;;2.97;100.00;99989.69;5011644;28;20403;-45
2022/11/23 09:09:35;;;;;;;37.13;21.38;;;;;;;3.01;100.00;99983.44;5011035;28;20188;-45
2022/11/23 09:12:01;;;;;;;35.72;21.33;;;;;;;3.03;100.00;99990.44;5006849;28;20735;-45
2022/11/23 09:14:27;;;;;;;32.53;20.23;;;;;;;3.03;100.00;99979.84;5010363;28;20276;-46
2022/11/23 09:16:53;;;;;;;37.22;22.15;;;;;;;3.06;100.00;99989.50;5007748;28;20575;-46
2022/11/23 09:19:18;;;;;;;30.08;20.17;;;;;;;3.09;100.00;99986.81;5011330;28;20205;-47
2022/11/23 09:21:44;;;;;;;34.42;20.60;;;;;;;3.12;100.00;99996.44;4992011;28;20258;-47
2022/11/23 09:24:11;;;;;;;36.70;20.70;;;;;;;3.14;100.00;99995.50;5011245;28;20287;-46
2022/11/23 09:26:37;;;;;;;32.28;20.48;;;;;;;3.16;100.00;99992.84;5007370;28;20287;-45
2022/11/23 09:29:04;;;;;;;32.83;19.30;;;;;;;3.17;100.00;99992.81;4998830;23;20228;-42
2022/11/23 09:31:29;;;;;;;51.22;22.13;;;;;;;3.20;100.00;100005.97;4913488;28;20555;-43
2022/11/23 09:33:55;;;;;;;36.97;20.48;;;;;;;3.21;100.00;99998.91;4912176;28;20195;-42
2022/11/23 09:36:21;;;;;;;35.90;19.88;;;;;;;3.24;100.00;100002.34;4976959;28;20196;-42
2022/11/23 09:38:48;;;;;;;33.80;19.08;;;;;;;3.32;100.00;100004.81;5010988;28;20177;-44
2022/11/23 09:41:46;;;;;;;34.03;19.80;;;;;;;3.37;100.00;99996.78;5010524;28;20181;-43
2022/11/23 09:44:33;;;;;;;33.30;19.88;;;;;;;3.40;100.00;100005.53;5010880;28;20212;-40
2022/11/23 09:47:20;;;;;;;27.35;18.23;;;;;;;3.43;100.00;100009.88;5008697;28;20302;-42
2022/11/23 09:49:48;;;;;;;30.55;18.55;;;;;;;3.47;100.00;100009.78;5008053;28;20184;-43
2022/11/23 09:52:18;;;;;;;30.55;17.60;;;;;;;3.52;100.00;100001.75;5008541;28;20507;-42
2022/11/23 09:54:47;;;;;;;28.25;19.17;;;;;;;3.60;100.00;100007.72;5009622;28;20196;-43
2022/11/23 09:57:20;;;;;;;29.55;18.50;;;;;;;3.64;100.00;100004.09;5010303;28;20240;-44
2022/11/23 09:59:55;;;;;;;28.30;18.33;;;;;;;3.77;100.00;100007.34;4992103;28;20541;-41
2022/11/23 10:02:23;;;;;;;28.98;18.95;;;;;;;3.86;100.00;100000.94;4988012;28;20196;-48
2022/11/23 10:04:51;;;;;;;28.98;18.38;;;;;;;3.86;100.00;100004.47;5010758;28;20196;-49
2022/11/23 10:07:16;;;;;;;30.15;18.55;;;;;;;3.90;100.00;100005.28;5009985;28;20248;-48
2022/11/23 10:09:52;;;;;;;27.23;17.20;;;;;;;4.01;100.00;99999.72;5010783;28;20286;-46
2022/11/23 10:12:50;;;;;;;27.38;18.60;;;;;;;4.10;100.00;99991.53;4992710;28;20671;-48
2022/11/23 10:15:24;;;;;;;29.10;17.10;;;;;;;4.09;100.00;100014.53;5011347;28;20184;-46
2022/11/23 10:18:02;;;;;;;23.88;16.33;;;;;;;4.09;100.00;100003.91;4994299;28;20299;-44
2022/11/23 10:20:55;;;;;;;31.33;17.33;;;;;;;4.09;100.00;100009.22;4994093;28;20184;-47
2022/11/23 10:23:30;;;;;;;23.00;16.08;;;;;;;4.03;100.00;100005.84;5011373;28;20192;-44
2022/11/23 10:25:55;;;;;;;26.85;16.45;;;;;;;4.05;100.00;99993.44;5010641;28;20180;-50
2022/11/23 10:28:22;;;;;;;21.33;15.25;;;;;;;4.07;100.00;99999.56;5011063;28;20722;-43
2022/11/23 10:30:54;;;;;;;24.10;16.65;;;;;;;4.07;100.00;100010.19;5010213;28;20234;-49
2022/11/23 10:33:30;;;;;;;22.27;15.88;;;;;;;4.14;100.00;100006.44;5010894;28;20195;-49
2022/11/23 10:35:55;;;;;;;23.38;15.65;;;;;;;4.17;100.00;100013.44;5010589;28;20375;-45
2022/11/23 10:38:25;;;;;;;20.15;14.40;;;;;;;4.17;100.00;100003.72;4992900;28;20220;-46
2022/11/23 10:41:11;;;;;;;20.92;15.40;;;;;;;4.21;100.00;100010.69;5010586;28;20193;-50
2022/11/23 10:43:54;;;;;;;24.85;14.77;;;;;;;4.24;100.00;100002.66;5010234;28;20185;-46
2022/11/23 10:46:23;;;;;;;22.38;14.15;;;;;;;4.26;100.00;100006.16;5010173;28;20539;-44
2022/11/23 10:48:50;;;;;;;21.17;14.55;;;;;;;4.33;100.00;100012.16;5010271;28;20208;-47
2022/11/23 10:51:28;;;;;;;23.75;14.77;;;;;;;4.36;100.00;100006.78;5010592;28;20638;-44
2022/11/23 10:53:58;;;;;;;22.98;13.65;;;;;;;4.35;100.00;100007.66;5010383;28;20172;-46
2022/11/23 10:56:24;;;;;;;18.70;13.63;;;;;;;4.42;100.00;100017.22;5010333;28;20220;-45
2022/11/23 10:58:50;;;;;;;21.88;14.50;;;;;;;4.43;100.00;100020.75;5010599;28;20226;-44
2022/11/23 11:01:23;;;;;;;17.67;13.98;;;;;;;4.46;100.00;100012.69;5010306;28;20177;-44
2022/11/23 11:03:53;;;;;;;24.02;13.05;;;;;;;4.46;100.00;100016.25;5010649;28;20173;-47
2022/11/23 11:06:32;;;;;;;20.70;13.60;;;;;;;4.50;100.00;100017.91;5009740;28;20196;-48
2022/11/23 11:09:01;;;;;;;19.38;12.82;;;;;;;4.56;100.00;100014.19;5010402;28;20688;-44
2022/11/23 11:11:28;;;;;;;20.65;12.77;;;;;;;4.59;100.00;100015.88;5010516;28;20179;-43
2022/11/23 11:14:15;;;;;;;17.05;12.02;;;;;;;4.63;100.00;100015.75;5010459;28;20619;-44
2022/11/23 11:16:50;;;;;;;22.92;13.80;;;;;;;4.66;100.00;100014.84;5016749;28;20564;-45
2022/11/23 11:19:24;;;;;;;17.70;12.88;;;;;;;4.72;100.00;100006.69;5016578;28;20264;-49
2022/11/23 11:21:49;;;;;;;19.77;13.07;;;;;;;4.70;100.00;100006.75;5016789;28;20180;-46
2022/11/23 11:24:20;;;;;;;15.65;11.63;;;;;;;4.69;100.00;99998.81;5016762;28;20167;-43